createdAt,value
2022-11-10T00:00:37.275Z,2.78
2022-11-10T00:03:06.913Z,2.80
2022-11-10T00:05:34.801Z,2.47
2022-11-10T00:08:04.241Z,3.05
2022-11-10T00:10:33.624Z,2.70
2022-11-10T00:13:01.985Z,2.95
2022-11-10T00:15:47.404Z,2.53
2022-11-10T00:18:15.154Z,2.97
2022-11-10T00:20:42.763Z,3.05
2022-11-10T00:23:10.516Z,2.97
2022-11-10T00:25:39.541Z,2.72
2022-11-10T00:28:07.240Z,2.83
2022-11-10T00:30:34.909Z,2.40
2022-11-10T00:33:02.517Z,3.00
2022-11-10T00:35:30.160Z,2.70
2022-11-10T00:37:57.770Z,2.90
2022-11-10T00:40:25.389Z,3.10
2022-11-10T00:42:54.332Z,2.58
2022-11-10T00:45:21.890Z,2.95
2022-11-10T00:47:49.465Z,3.33
2022-11-10T00:50:17.142Z,3.05
2022-11-10T00:52:44.783Z,3.20
2022-11-10T00:55:12.388Z,2.80
2022-11-10T00:57:39.989Z,2.97
2022-11-10T01:00:10.764Z,3.15
2022-11-10T01:02:38.412Z,3.15
2022-11-10T01:05:06.674Z,3.03
2022-11-10T01:07:34.291Z,3.70
2022-11-10T01:10:01.910Z,2.70
2022-11-10T01:12:30.387Z,3.28
2022-11-10T01:14:58.388Z,3.20
2022-11-10T01:17:27.425Z,3.63
2022-11-10T01:19:55.046Z,3.42
2022-11-10T01:22:22.621Z,3.15
2022-11-10T01:24:50.428Z,3.20
2022-11-10T01:27:18.095Z,3.38
2022-11-10T01:29:45.987Z,3.03
2022-11-10T01:32:13.674Z,3.45
2022-11-10T01:34:42.656Z,3.00
2022-11-10T01:37:10.304Z,3.80
2022-11-10T01:39:37.922Z,3.85
2022-11-10T01:42:05.872Z,3.20
2022-11-10T01:44:35.797Z,3.97
2022-11-10T01:47:03.498Z,3.65
2022-11-10T01:49:33.689Z,3.45
2022-11-10T01:52:05.820Z,3.38
2022-11-10T01:54:36.265Z,3.10
2022-11-10T01:57:06.285Z,3.90
2022-11-10T01:59:36.736Z,3.72
2022-11-10T02:02:09.520Z,3.38
2022-11-10T02:04:37.996Z,3.58
2022-11-10T02:07:07.176Z,3.13
2022-11-10T02:09:34.904Z,3.10
2022-11-10T02:12:02.501Z,3.15
2022-11-10T02:14:30.174Z,3.50
2022-11-10T02:16:57.894Z,3.50
2022-11-10T02:19:27.216Z,3.58
2022-11-10T02:21:56.223Z,3.78
2022-11-10T02:24:23.844Z,3.67
2022-11-10T02:26:54.777Z,3.30
2022-11-10T02:29:23.375Z,3.45
2022-11-10T02:31:50.997Z,4.33
2022-11-10T02:34:18.682Z,3.20
2022-11-10T02:36:46.406Z,3.42
2022-11-10T02:39:15.388Z,3.15
2022-11-10T02:41:42.968Z,3.53
2022-11-10T02:44:10.573Z,3.33
2022-11-10T02:46:38.383Z,3.47
2022-11-10T02:49:06.072Z,3.20
2022-11-10T02:51:33.669Z,3.67
2022-11-10T02:54:01.420Z,3.60
2022-11-10T02:56:30.424Z,3.25
2022-11-10T02:58:58.471Z,3.55
2022-11-10T03:01:26.170Z,2.95
2022-11-10T03:03:53.902Z,3.42
2022-11-10T03:06:21.538Z,3.20
2022-11-10T03:08:49.148Z,3.85
2022-11-10T03:11:16.749Z,3.47
2022-11-10T03:14:00.812Z,2.90
2022-11-10T03:16:29.365Z,3.63
2022-11-10T03:18:57.072Z,3.45
2022-11-10T03:21:24.675Z,3.20
2022-11-10T03:23:52.264Z,3.70
2022-11-10T03:26:19.934Z,3.65
2022-11-10T03:28:48.919Z,3.67
2022-11-10T03:31:16.504Z,3.10
2022-11-10T03:33:44.122Z,3.77
2022-11-10T03:36:11.739Z,3.70
2022-11-10T03:38:39.444Z,3.60
2022-11-10T03:41:22.821Z,3.80
2022-11-10T03:43:51.886Z,3.50
2022-11-10T03:46:19.589Z,3.67
2022-11-10T03:48:52.920Z,3.72
2022-11-10T03:51:21.485Z,3.47
2022-11-10T03:53:49.158Z,3.78
2022-11-10T03:56:17.012Z,3.63
2022-11-10T03:58:44.679Z,4.40
2022-11-10T04:01:13.691Z,4.13
2022-11-10T04:03:41.310Z,3.97
2022-11-10T04:06:27.375Z,3.60
2022-11-10T04:09:01.003Z,3.83
2022-11-10T04:11:47.133Z,3.72
2022-11-10T04:14:32.408Z,4.28
2022-11-10T04:17:01.963Z,4.10
2022-11-10T04:19:29.916Z,4.15
2022-11-10T04:21:57.691Z,3.80
2022-11-10T04:24:25.391Z,4.00
2022-11-10T04:26:52.979Z,3.97
2022-11-10T04:29:21.246Z,4.00
2022-11-10T04:31:48.888Z,4.10
2022-11-10T04:34:17.923Z,3.63
2022-11-10T04:36:47.023Z,3.83
2022-11-10T04:39:14.647Z,4.20
2022-11-10T04:41:42.246Z,4.30
2022-11-10T04:44:10.007Z,4.13
2022-11-10T04:46:38.794Z,4.33
2022-11-10T04:49:07.705Z,4.30
2022-11-10T04:51:38.391Z,4.25
2022-11-10T04:54:07.347Z,3.90
2022-11-10T04:56:35.449Z,3.85
2022-11-10T04:59:03.082Z,4.28
2022-11-10T05:01:30.722Z,4.28
2022-11-10T05:03:58.496Z,3.80
2022-11-10T05:06:26.348Z,4.13
2022-11-10T05:08:55.406Z,4.53
2022-11-10T05:11:23.267Z,3.72
2022-11-10T05:13:50.914Z,4.28
2022-11-10T05:16:18.575Z,4.35
2022-11-10T05:18:46.209Z,4.67
2022-11-10T05:21:13.838Z,4.85
2022-11-10T05:23:42.010Z,3.90
2022-11-10T05:26:12.565Z,4.10
2022-11-10T05:28:40.596Z,3.60
2022-11-10T05:31:08.644Z,4.28
2022-11-10T05:33:37.691Z,4.07
2022-11-10T05:36:06.653Z,4.15
2022-11-10T05:38:37.587Z,3.55
2022-11-10T05:41:08.158Z,4.18
2022-11-10T05:43:37.147Z,3.80
2022-11-10T05:46:04.848Z,3.92
2022-11-10T05:48:32.468Z,3.95
2022-11-10T05:51:00.056Z,4.30
2022-11-10T05:53:27.686Z,3.97
2022-11-10T05:55:55.295Z,3.83
2022-11-10T05:58:22.935Z,4.20
2022-11-10T06:00:52.013Z,4.25
2022-11-10T06:03:20.789Z,4.10
2022-11-10T06:05:48.749Z,4.28
2022-11-10T06:08:17.731Z,3.55
2022-11-10T06:10:45.507Z,3.20
2022-11-10T06:13:13.115Z,4.00
2022-11-10T06:15:41.616Z,3.80
2022-11-10T06:18:11.222Z,3.50
2022-11-10T06:20:38.883Z,4.05
2022-11-10T06:23:07.904Z,3.78
2022-11-10T06:25:36.864Z,3.65
2022-11-10T06:28:05.676Z,3.80
2022-11-10T06:30:35.053Z,4.22
2022-11-10T06:33:02.928Z,3.70
2022-11-10T06:35:32.079Z,3.67
2022-11-10T06:38:00.832Z,4.15
2022-11-10T06:40:29.281Z,4.57
2022-11-10T06:42:57.002Z,3.78
2022-11-10T06:45:25.064Z,3.80
2022-11-10T06:48:00.285Z,4.13
2022-11-10T06:50:27.889Z,3.53
2022-11-10T06:52:57.555Z,3.67
2022-11-10T06:55:25.552Z,3.80
2022-11-10T06:57:54.251Z,3.85
2022-11-10T07:00:22.262Z,3.25
2022-11-10T07:02:49.977Z,3.97
2022-11-10T07:05:17.594Z,4.13
2022-11-10T07:07:45.240Z,3.40
2022-11-10T07:10:14.237Z,4.10
2022-11-10T07:12:41.879Z,3.25
2022-11-10T07:15:10.999Z,3.85
2022-11-10T07:17:41.488Z,3.70
2022-11-10T07:20:10.283Z,3.67
2022-11-10T07:22:37.896Z,3.47
2022-11-10T07:25:06.483Z,3.80
2022-11-10T07:27:35.533Z,3.88
2022-11-10T07:30:03.396Z,3.30
2022-11-10T07:32:31.062Z,4.23
2022-11-10T07:34:58.764Z,4.25
2022-11-10T07:37:26.400Z,3.22
2022-11-10T07:39:53.996Z,3.92
2022-11-10T07:42:21.635Z,3.83
2022-11-10T07:44:50.669Z,3.15
2022-11-10T07:47:18.285Z,3.70
2022-11-10T07:49:45.892Z,3.70
2022-11-10T07:52:13.772Z,3.85
2022-11-10T07:54:41.408Z,3.22
2022-11-10T07:57:09.012Z,3.42
2022-11-10T07:59:36.718Z,3.47
2022-11-10T08:02:05.897Z,3.80
2022-11-10T08:04:33.727Z,3.78
2022-11-10T08:07:01.384Z,3.40
2022-11-10T08:09:29.097Z,3.20
2022-11-10T08:11:56.716Z,3.95
2022-11-10T08:14:24.326Z,4.38
2022-11-10T08:16:51.927Z,3.95
2022-11-10T08:19:20.971Z,3.90
2022-11-10T08:21:48.510Z,3.35
2022-11-10T08:24:16.122Z,3.78
2022-11-10T08:26:43.751Z,3.30
2022-11-10T08:29:11.462Z,3.60
2022-11-10T08:31:39.249Z,3.35
2022-11-10T08:34:06.873Z,4.55
2022-11-10T08:36:37.569Z,3.47
2022-11-10T08:39:05.387Z,3.88
2022-11-10T08:41:32.985Z,3.85
2022-11-10T08:44:00.633Z,3.60
2022-11-10T08:46:28.246Z,3.53
2022-11-10T08:48:55.845Z,3.80
2022-11-10T08:51:23.430Z,3.45
2022-11-10T08:53:52.447Z,3.70
2022-11-10T08:56:20.172Z,3.80
2022-11-10T08:58:53.163Z,4.15
2022-11-10T09:01:21.296Z,3.97
2022-11-10T09:03:48.917Z,3.75
2022-11-10T09:06:16.512Z,3.58
2022-11-10T09:08:44.336Z,3.38
2022-11-10T09:11:13.304Z,3.20
2022-11-10T09:13:40.840Z,4.03
2022-11-10T09:16:08.851Z,4.00
2022-11-10T09:18:36.452Z,3.33
2022-11-10T09:21:06.691Z,3.53
2022-11-10T09:23:34.354Z,3.50
2022-11-10T09:26:01.941Z,3.67
2022-11-10T09:28:30.922Z,3.25
2022-11-10T09:30:58.504Z,4.03
2022-11-10T09:33:26.362Z,3.55
2022-11-10T09:35:58.378Z,3.60
2022-11-10T09:38:26.016Z,3.65
2022-11-10T09:41:01.011Z,3.78
2022-11-10T09:43:36.049Z,4.13
2022-11-10T09:46:10.525Z,3.92
2022-11-10T09:48:39.983Z,4.25
2022-11-10T09:51:10.083Z,3.57
2022-11-10T09:53:39.969Z,3.43
2022-11-10T09:56:08.491Z,4.25
2022-11-10T09:58:40.021Z,3.17
2022-11-10T10:01:23.164Z,3.63
2022-11-10T10:04:01.073Z,4.15
2022-11-10T10:06:43.713Z,4.20
2022-11-10T10:09:24.860Z,3.15
2022-11-10T10:12:00.280Z,3.45
2022-11-10T10:14:41.560Z,3.60
2022-11-10T10:17:16.276Z,3.35
2022-11-10T10:19:49.616Z,3.58
2022-11-10T10:22:30.284Z,3.95
2022-11-10T10:25:00.525Z,3.47
2022-11-10T10:27:28.984Z,3.42
2022-11-10T10:29:58.014Z,2.95
2022-11-10T10:32:27.902Z,3.85
2022-11-10T10:34:57.438Z,3.80
2022-11-10T10:37:26.947Z,3.95
2022-11-10T10:39:56.199Z,3.38
2022-11-10T10:42:31.111Z,3.55
2022-11-10T10:45:20.713Z,3.20
2022-11-10T10:47:49.407Z,3.97
2022-11-10T10:50:23.807Z,3.17
2022-11-10T10:53:08.627Z,3.60
2022-11-10T10:55:36.975Z,2.75
2022-11-10T10:58:06.263Z,3.90
2022-11-10T11:00:43.984Z,2.83
2022-11-10T11:03:15.112Z,3.00
2022-11-10T11:05:42.763Z,3.27
2022-11-10T11:08:18.770Z,2.70
2022-11-10T11:10:47.716Z,2.88
2022-11-10T11:13:16.425Z,3.38
2022-11-10T11:15:57.998Z,3.22
2022-11-10T11:18:26.588Z,3.10
2022-11-10T11:21:01.199Z,2.92
2022-11-10T11:24:07.788Z,2.60
2022-11-10T11:26:43.797Z,2.70
2022-11-10T11:29:28.093Z,2.33
2022-11-10T11:32:02.445Z,2.58
2022-11-10T11:34:34.032Z,2.50
2022-11-10T11:37:09.890Z,2.50
2022-11-10T11:39:47.928Z,2.58
2022-11-10T11:42:33.856Z,2.78
2022-11-10T11:45:12.553Z,2.92
2022-11-10T11:48:00.833Z,3.00
2022-11-10T11:50:31.488Z,2.20
2022-11-10T11:53:07.572Z,2.88
2022-11-10T11:55:49.032Z,2.67
2022-11-10T11:58:33.663Z,2.80
2022-11-10T12:01:11.840Z,2.22
2022-11-10T12:04:12.645Z,2.53
2022-11-10T12:06:48.724Z,2.40
2022-11-10T12:09:24.520Z,2.40
2022-11-10T12:12:02.501Z,2.45
2022-11-10T12:14:35.740Z,2.40
2022-11-10T12:17:09.141Z,2.60
2022-11-10T12:19:42.441Z,2.60
2022-11-10T12:22:14.585Z,2.30
2022-11-10T12:24:57.377Z,2.95
2022-11-10T12:27:26.919Z,2.97
2022-11-10T12:29:56.917Z,2.35
2022-11-10T12:32:27.727Z,1.90
2022-11-10T12:36:38.944Z,2.22
2022-11-10T12:39:15.103Z,2.15
2022-11-10T12:41:46.885Z,2.28
2022-11-10T12:44:19.989Z,2.10
2022-11-10T12:46:51.868Z,2.22
2022-11-10T12:49:23.463Z,1.85
2022-11-10T12:51:55.817Z,2.07
2022-11-10T12:54:24.023Z,2.47
2022-11-10T12:56:54.144Z,2.00
2022-11-10T12:59:27.763Z,2.23
2022-11-10T13:02:01.858Z,2.10
2022-11-10T13:04:30.149Z,2.53
2022-11-10T13:07:01.667Z,1.77
2022-11-10T13:09:30.594Z,2.13
2022-11-10T13:12:07.833Z,2.20
2022-11-10T13:14:35.514Z,2.17
2022-11-10T13:17:03.127Z,2.00
2022-11-10T13:19:51.896Z,2.28
2022-11-10T13:22:36.813Z,1.60
2022-11-10T13:25:41.811Z,1.95
2022-11-10T13:28:10.357Z,2.00
2022-11-10T13:30:39.901Z,1.92
2022-11-10T13:33:33.760Z,1.73
2022-11-10T13:36:01.522Z,2.00
2022-11-10T13:38:38.605Z,1.83
2022-11-10T13:41:15.045Z,1.83
2022-11-10T13:43:49.596Z,1.85
2022-11-10T13:46:38.770Z,2.20
2022-11-10T13:49:26.308Z,2.05
2022-11-10T13:52:06.136Z,1.80
2022-11-10T13:54:54.511Z,1.65
2022-11-10T13:57:27.601Z,1.90
2022-11-10T14:04:41.272Z,1.87
2022-11-10T14:07:14.719Z,1.45
2022-11-10T14:09:44.107Z,1.80
2022-11-10T14:12:21.257Z,2.80
2022-11-10T14:14:53.199Z,1.50
2022-11-10T14:17:24.188Z,1.47
2022-11-10T14:19:53.331Z,2.53
2022-11-10T14:22:24.122Z,2.42
2022-11-10T14:24:57.623Z,1.88
2022-11-10T14:27:27.179Z,1.40
2022-11-10T14:30:20.720Z,1.47
2022-11-10T14:32:56.500Z,1.48
2022-11-10T14:35:27.939Z,1.48
2022-11-10T14:37:59.381Z,1.70
2022-11-10T14:40:28.210Z,1.33
2022-11-10T14:42:55.965Z,1.53
2022-11-10T14:45:25.096Z,1.20
2022-11-10T14:47:54.141Z,1.73
2022-11-10T14:50:25.294Z,1.25
2022-11-10T14:52:55.324Z,1.25
2022-11-10T14:55:24.665Z,0.90
2022-11-10T14:57:53.628Z,1.35
2022-11-10T15:00:26.180Z,0.90
2022-11-10T15:05:37.805Z,1.55
2022-11-10T15:08:06.266Z,1.08
2022-11-10T15:10:45.945Z,1.20
2022-11-10T15:13:20.673Z,0.93
2022-11-10T15:15:48.294Z,1.25
2022-11-10T15:18:27.431Z,1.00
2022-11-10T15:21:02.604Z,1.20
2022-11-10T15:23:36.412Z,1.20
2022-11-10T15:26:04.233Z,1.60
2022-11-10T15:28:33.153Z,1.88
2022-11-10T15:31:02.700Z,2.08
2022-11-10T15:33:32.959Z,2.63
2022-11-10T15:36:17.156Z,3.13
2022-11-10T15:38:44.838Z,2.65
2022-11-10T15:41:14.586Z,2.50
2022-11-10T15:43:42.180Z,4.50
2022-11-10T15:46:17.720Z,9.85
2022-11-10T15:48:47.350Z,5.07
2022-11-10T15:51:21.496Z,2.45
2022-11-10T15:55:21.938Z,1.53
2022-11-10T15:57:49.534Z,1.37
2022-11-10T16:02:03.964Z,5.13
2022-11-10T16:04:31.652Z,4.80
2022-11-10T16:07:00.757Z,3.35
2022-11-10T16:09:28.785Z,2.63
2022-11-10T16:11:56.484Z,2.05
2022-11-10T16:14:24.071Z,2.47
2022-11-10T16:16:51.711Z,1.95
2022-11-10T16:19:20.808Z,2.05
2022-11-10T16:21:48.417Z,1.55
2022-11-10T16:24:16.091Z,1.50
2022-11-10T16:26:43.703Z,1.42
2022-11-10T16:29:13.685Z,1.65
2022-11-10T16:31:41.285Z,1.88
2022-11-10T16:34:12.619Z,1.80
2022-11-10T16:36:42.578Z,1.92
2022-11-10T16:39:13.537Z,1.77
2022-11-10T16:41:42.322Z,1.58
2022-11-10T16:44:11.657Z,1.50
2022-11-10T16:46:39.529Z,1.50
2022-11-10T16:49:11.297Z,1.45
2022-11-10T16:51:48.328Z,1.27
2022-11-10T16:54:17.797Z,1.50
2022-11-10T16:56:45.438Z,2.47
2022-11-10T16:59:13.503Z,2.67
2022-11-10T17:01:42.910Z,1.67
2022-11-10T17:04:12.408Z,3.72
2022-11-10T17:06:40.294Z,2.70
2022-11-10T17:09:14.492Z,1.80
2022-11-10T17:11:42.128Z,1.48
2022-11-10T17:14:12.065Z,1.42
2022-11-10T17:16:42.991Z,1.33
2022-11-10T17:19:16.584Z,1.42
2022-11-10T17:21:44.289Z,1.60
2022-11-10T17:24:14.452Z,2.03
2022-11-10T17:26:42.691Z,2.10
2022-11-10T17:29:17.097Z,1.90
2022-11-10T17:31:44.890Z,1.53
2022-11-10T17:34:12.552Z,1.77
2022-11-10T17:36:40.459Z,1.60
2022-11-10T17:39:08.222Z,1.77
2022-11-10T17:41:37.213Z,1.48
2022-11-10T17:44:04.976Z,1.40
2022-11-10T17:46:32.632Z,1.52
2022-11-10T17:49:02.938Z,1.45
2022-11-10T17:51:33.631Z,1.70
2022-11-10T17:54:04.147Z,1.58
2022-11-10T17:56:31.923Z,1.20
2022-11-10T17:59:01.243Z,1.27
2022-11-10T18:01:28.983Z,1.88
2022-11-10T18:03:57.066Z,1.77
2022-11-10T18:06:24.749Z,1.38
2022-11-10T18:08:52.446Z,1.52
2022-11-10T18:11:20.177Z,1.52
2022-11-10T18:13:47.817Z,1.42
2022-11-10T18:16:16.806Z,1.05
2022-11-10T18:19:46.900Z,1.70
2022-11-10T18:22:14.633Z,1.10
2022-11-10T18:24:42.429Z,1.88
2022-11-10T18:27:10.165Z,1.83
2022-11-10T18:29:37.745Z,2.67
2022-11-10T18:32:05.777Z,2.03
2022-11-10T18:34:33.451Z,1.33
2022-11-10T18:37:23.471Z,1.33
2022-11-10T18:39:51.224Z,1.48
2022-11-10T18:42:18.849Z,2.10
2022-11-10T18:44:46.500Z,1.77
2022-11-10T18:47:14.561Z,1.70
2022-11-10T18:49:42.384Z,1.63
2022-11-10T18:52:10.469Z,1.60
2022-11-10T18:54:39.525Z,1.88
2022-11-10T18:57:07.157Z,2.08
2022-11-10T18:59:34.761Z,1.57
2022-11-10T19:02:02.469Z,1.85
2022-11-10T19:04:30.251Z,1.67
2022-11-10T19:06:58.292Z,1.75
2022-11-10T19:09:26.017Z,3.40
2022-11-10T19:11:55.234Z,2.30
2022-11-10T19:14:23.122Z,2.67
2022-11-10T19:16:50.823Z,3.00
2022-11-10T19:19:18.484Z,2.30
2022-11-10T19:21:46.112Z,8.70
2022-11-10T19:24:25.850Z,14.90
2022-11-10T19:26:56.730Z,7.15
2022-11-10T19:29:24.386Z,3.47
2022-11-10T19:31:52.071Z,2.03
2022-11-10T19:34:19.698Z,2.17
2022-11-10T19:36:49.169Z,2.03
2022-11-10T19:39:16.788Z,2.00
2022-11-10T19:41:44.365Z,2.17
2022-11-10T19:44:13.433Z,1.70
2022-11-10T19:46:41.043Z,2.30
2022-11-10T19:49:08.975Z,2.38
2022-11-10T19:51:36.672Z,2.33
2022-11-10T19:54:05.075Z,7.15
2022-11-10T19:56:34.049Z,3.50
2022-11-10T19:59:01.701Z,2.75
2022-11-10T20:01:32.430Z,4.90
2022-11-10T20:04:00.887Z,5.68
2022-11-10T20:06:28.788Z,4.38
2022-11-10T20:08:56.476Z,3.28
2022-11-10T20:11:25.749Z,2.85
2022-11-10T20:13:55.394Z,2.47
2022-11-10T20:16:23.460Z,1.97
2022-11-10T20:18:52.713Z,2.53
2022-11-10T20:21:23.525Z,2.58
2022-11-10T20:23:55.093Z,2.50
2022-11-10T20:26:23.588Z,2.67
2022-11-10T20:28:51.620Z,2.92
2022-11-10T20:31:21.375Z,2.63
2022-11-10T20:33:49.546Z,3.25
2022-11-10T20:36:20.844Z,2.40
2022-11-10T20:38:49.110Z,2.70
2022-11-10T20:41:18.627Z,3.67
2022-11-10T20:43:46.419Z,2.08
2022-11-10T20:46:33.180Z,2.47
2022-11-10T20:49:03.207Z,2.60
2022-11-10T20:51:32.251Z,3.08
2022-11-10T20:54:00.723Z,2.88
2022-11-10T20:56:29.881Z,2.63
2022-11-10T20:58:58.305Z,3.00
2022-11-10T21:01:26.335Z,2.70
2022-11-10T21:03:54.012Z,2.83
2022-11-10T21:06:21.661Z,2.55
2022-11-10T21:08:50.698Z,3.00
2022-11-10T21:11:38.867Z,3.28
2022-11-10T21:14:06.560Z,2.97
2022-11-10T21:16:34.255Z,3.17
2022-11-10T21:19:01.913Z,3.40
2022-11-10T21:21:34.448Z,3.67
2022-11-10T21:24:04.329Z,3.00
2022-11-10T21:26:32.226Z,2.97
2022-11-10T21:28:59.854Z,3.22
2022-11-10T21:31:27.786Z,3.13
2022-11-10T21:33:55.876Z,3.22
2022-11-10T21:36:23.871Z,3.28
2022-11-10T21:38:51.721Z,3.30
2022-11-10T21:41:20.800Z,3.22
2022-11-10T21:43:48.471Z,3.15
2022-11-10T21:46:17.172Z,4.18
2022-11-10T21:48:44.855Z,5.18
2022-11-10T21:51:14.157Z,4.30
2022-11-10T21:53:42.338Z,3.60
2022-11-10T21:56:11.460Z,4.20
2022-11-10T21:58:40.884Z,4.00
2022-11-10T22:01:10.878Z,3.78
2022-11-10T22:03:38.679Z,3.90
2022-11-10T22:06:07.631Z,4.00
2022-11-10T22:08:36.350Z,3.57
2022-11-10T22:11:21.778Z,3.55
2022-11-10T22:14:08.393Z,3.30
2022-11-10T22:16:57.654Z,4.35
2022-11-10T22:19:25.345Z,3.80
2022-11-10T22:21:53.027Z,4.57
2022-11-10T22:24:27.661Z,3.50
2022-11-10T22:26:58.294Z,4.22
2022-11-10T22:29:31.653Z,4.40
2022-11-10T22:32:00.107Z,4.67
2022-11-10T22:34:28.042Z,4.65
2022-11-10T22:36:55.929Z,4.03
2022-11-10T22:39:43.945Z,3.90
2022-11-10T22:42:30.035Z,4.20
2022-11-10T22:44:59.163Z,4.45
2022-11-10T22:47:46.881Z,3.72
2022-11-10T22:50:14.672Z,3.67
2022-11-10T22:52:42.342Z,4.13
2022-11-10T22:55:10.541Z,3.97
2022-11-10T22:57:38.196Z,4.10
2022-11-10T23:00:08.986Z,4.18
2022-11-10T23:02:36.926Z,4.27
2022-11-10T23:05:04.746Z,3.95
2022-11-10T23:07:32.432Z,4.55
2022-11-10T23:10:00.099Z,4.38
2022-11-10T23:12:27.832Z,4.20
2022-11-10T23:14:55.501Z,4.70
2022-11-10T23:17:24.533Z,4.50
2022-11-10T23:19:52.144Z,4.20
2022-11-10T23:22:19.802Z,4.40
2022-11-10T23:24:49.075Z,4.28
2022-11-10T23:27:18.366Z,4.00
2022-11-10T23:29:45.988Z,4.23
2022-11-10T23:32:13.645Z,4.55
2022-11-10T23:34:42.884Z,4.30
2022-11-10T23:37:10.494Z,4.40
2022-11-10T23:39:38.125Z,4.72
2022-11-10T23:42:06.373Z,4.80
2022-11-10T23:44:34.013Z,4.60
2022-11-10T23:47:01.972Z,3.75
2022-11-10T23:49:29.600Z,4.38
2022-11-10T23:51:58.674Z,4.67
2022-11-10T23:54:26.351Z,4.70
2022-11-10T23:56:54.048Z,4.00
2022-11-10T23:59:21.664Z,4.70
